createdAt,value
2018-04-14T00:00:11.726Z,93.60
2018-04-14T00:02:39.160Z,93.37
2018-04-14T00:05:06.591Z,90.43
2018-04-14T00:07:34.257Z,95.27
2018-04-14T00:10:01.683Z,94.10
2018-04-14T00:12:29.111Z,90.13
2018-04-14T00:14:56.532Z,96.33
2018-04-14T00:17:23.972Z,95.80
2018-04-14T00:19:51.412Z,90.17
2018-04-14T00:22:18.820Z,89.43
2018-04-14T00:24:46.260Z,93.47
2018-04-14T00:27:13.668Z,80.57
2018-04-14T00:29:41.100Z,86.33
2018-04-14T00:32:08.527Z,94.20
2018-04-14T00:34:35.956Z,87.80
2018-04-14T00:37:03.384Z,92.17
2018-04-14T00:39:30.953Z,88.07
2018-04-14T00:41:58.371Z,94.50
2018-04-14T00:44:25.795Z,91.03
2018-04-14T00:46:53.215Z,87.00
2018-04-14T00:49:20.624Z,88.23
2018-04-14T00:51:48.058Z,94.57
2018-04-14T00:54:15.468Z,92.33
2018-04-14T00:56:42.896Z,92.20
2018-04-14T00:59:10.372Z,92.00
2018-04-14T01:01:37.799Z,89.77
2018-04-14T01:04:05.221Z,92.70
2018-04-14T01:06:37.539Z,96.37
2018-04-14T01:09:05.884Z,89.67
2018-04-14T01:11:33.375Z,95.93
2018-04-14T01:14:00.789Z,98.27
2018-04-14T01:16:28.468Z,94.07
2018-04-14T01:18:55.890Z,94.33
2018-04-14T01:21:23.307Z,92.33
2018-04-14T01:23:50.732Z,96.93
2018-04-14T01:26:18.157Z,86.63
2018-04-14T01:28:45.588Z,96.10
2018-04-14T01:31:13.018Z,99.13
2018-04-14T01:33:40.429Z,96.53
2018-04-14T01:36:07.862Z,95.53
2018-04-14T01:38:35.292Z,96.37
2018-04-14T01:41:02.710Z,103.13
2018-04-14T01:43:30.147Z,100.87
2018-04-14T01:45:57.576Z,90.27
2018-04-14T01:48:24.987Z,97.77
2018-04-14T01:50:52.432Z,98.53
2018-04-14T01:53:19.849Z,99.90
2018-04-14T01:55:47.268Z,95.77
2018-04-14T01:58:14.721Z,104.13
2018-04-14T02:00:43.148Z,100.07
2018-04-14T02:03:10.584Z,107.80
2018-04-14T02:05:38.005Z,103.13
2018-04-14T02:08:05.439Z,103.23
2018-04-14T02:10:32.875Z,108.70
2018-04-14T02:13:00.316Z,103.03
2018-04-14T02:15:27.728Z,101.00
2018-04-14T02:17:55.156Z,100.83
2018-04-14T02:20:22.585Z,97.40
2018-04-14T02:22:50.016Z,94.90
2018-04-14T02:25:17.429Z,97.87
2018-04-14T02:27:44.991Z,95.00
2018-04-14T02:30:12.417Z,91.07
2018-04-14T02:32:39.832Z,99.67
2018-04-14T02:35:07.436Z,97.33
2018-04-14T02:37:34.849Z,99.50
2018-04-14T02:40:02.277Z,103.00
2018-04-14T02:42:29.730Z,99.03
2018-04-14T02:44:57.148Z,105.53
2018-04-14T02:47:24.576Z,102.33
2018-04-14T02:49:51.994Z,104.37
2018-04-14T02:52:19.477Z,107.93
2018-04-14T02:54:46.852Z,97.70
2018-04-14T02:57:14.276Z,104.90
2018-04-14T02:59:41.709Z,107.73
2018-04-14T03:02:09.239Z,95.13
2018-04-14T03:04:36.656Z,93.93
2018-04-14T03:07:04.081Z,105.10
2018-04-14T03:09:31.516Z,94.40
2018-04-14T03:11:59.045Z,89.50
2018-04-14T03:14:26.467Z,87.70
2018-04-14T03:16:53.897Z,91.97
2018-04-14T03:19:21.491Z,83.87
2018-04-14T03:21:48.909Z,87.93
2018-04-14T03:24:16.331Z,92.77
2018-04-14T03:26:43.755Z,92.97
2018-04-14T03:29:11.183Z,85.10
2018-04-14T03:31:38.592Z,85.67
2018-04-14T03:34:06.032Z,90.73
2018-04-14T03:36:33.455Z,90.03
2018-04-14T03:39:00.884Z,91.13
2018-04-14T03:41:28.299Z,86.63
2018-04-14T03:43:55.872Z,93.23
2018-04-14T03:46:23.287Z,98.27
2018-04-14T03:48:50.709Z,90.17
2018-04-14T03:51:18.135Z,96.43
2018-04-14T03:53:45.577Z,93.60
2018-04-14T03:56:13.008Z,89.40
2018-04-14T03:58:40.428Z,96.83
2018-04-14T04:01:07.847Z,99.40
2018-04-14T04:03:35.256Z,88.60
2018-04-14T04:06:02.976Z,92.20
2018-04-14T04:08:30.403Z,91.93
2018-04-14T04:10:57.812Z,92.13
2018-04-14T04:13:25.233Z,83.47
2018-04-14T04:15:52.654Z,85.33
2018-04-14T04:18:32.099Z,74.10
2018-04-14T04:21:12.084Z,89.70
2018-04-14T04:23:51.288Z,83.03
2018-04-14T04:26:18.692Z,90.67
2018-04-14T04:28:46.124Z,81.80
2018-04-14T04:31:13.536Z,87.27
2018-04-14T04:33:40.959Z,81.20
2018-04-14T04:36:08.388Z,89.50
2018-04-14T04:38:35.818Z,89.00
2018-04-14T04:41:03.240Z,88.20
2018-04-14T04:43:30.643Z,88.93
2018-04-14T04:45:58.216Z,89.73
2018-04-14T04:48:25.635Z,94.50
2018-04-14T04:50:53.040Z,94.63
2018-04-14T04:53:20.473Z,102.90
2018-04-14T04:55:47.887Z,90.97
2018-04-14T04:58:15.299Z,86.60
2018-04-14T05:00:42.725Z,89.83
2018-04-14T05:03:10.154Z,93.83
2018-04-14T05:05:37.588Z,89.57
2018-04-14T05:08:05.082Z,89.63
2018-04-14T05:10:32.488Z,86.53
2018-04-14T05:12:59.916Z,91.40
2018-04-14T05:15:27.324Z,83.17
2018-04-14T05:17:54.754Z,84.27
2018-04-14T05:20:22.172Z,84.50
2018-04-14T05:22:49.603Z,81.97
2018-04-14T05:25:17.025Z,85.20
2018-04-14T05:27:44.437Z,91.10
2018-04-14T05:30:11.857Z,85.83
2018-04-14T05:32:39.272Z,83.83
2018-04-14T05:35:06.684Z,85.57
2018-04-14T05:37:34.163Z,85.70
2018-04-14T05:40:01.511Z,91.67
2018-04-14T05:42:28.943Z,86.07
2018-04-14T05:44:56.354Z,94.43
2018-04-14T05:47:23.764Z,92.23
2018-04-14T05:49:51.215Z,87.60
2018-04-14T05:52:18.618Z,95.77
2018-04-14T05:54:46.036Z,98.83
2018-04-14T05:57:13.483Z,94.20
2018-04-14T05:59:40.901Z,98.03
2018-04-14T06:02:08.319Z,93.97
2018-04-14T06:04:35.752Z,94.87
2018-04-14T06:07:03.196Z,84.20
2018-04-14T06:09:30.608Z,89.63
2018-04-14T06:11:58.149Z,97.90
2018-04-14T06:14:25.565Z,83.83
2018-04-14T06:16:53.006Z,84.70
2018-04-14T06:19:20.446Z,86.87
2018-04-14T06:21:47.859Z,82.50
2018-04-14T06:24:15.295Z,82.40
2018-04-14T06:26:42.836Z,80.40
2018-04-14T06:29:10.296Z,77.40
2018-04-14T06:31:37.708Z,80.37
2018-04-14T06:34:05.135Z,84.97
2018-04-14T06:36:32.548Z,78.33
2018-04-14T06:39:00.317Z,82.97
2018-04-14T06:41:27.729Z,78.53
2018-04-14T06:43:55.143Z,75.23
2018-04-14T06:46:22.617Z,81.17
2018-04-14T06:48:50.012Z,74.00
2018-04-14T06:51:17.433Z,70.80
2018-04-14T06:53:45.236Z,70.57
2018-04-14T06:56:12.648Z,76.93
2018-04-14T06:58:40.071Z,76.40
2018-04-14T07:01:07.495Z,67.77
2018-04-14T07:03:34.932Z,72.13
2018-04-14T07:06:02.364Z,69.20
2018-04-14T07:08:29.776Z,69.93
2018-04-14T07:10:57.221Z,64.70
2018-04-14T07:13:24.645Z,58.47
2018-04-14T07:15:52.085Z,58.50
2018-04-14T07:18:19.517Z,58.53
2018-04-14T07:20:47.108Z,58.77
2018-04-14T07:23:14.512Z,55.17
2018-04-14T07:25:41.920Z,55.47
2018-04-14T07:28:09.360Z,54.07
2018-04-14T07:30:37.066Z,52.30
2018-04-14T07:33:04.500Z,51.17
2018-04-14T07:35:32.825Z,55.90
2018-04-14T07:38:00.252Z,49.90
2018-04-14T07:40:27.672Z,50.57
2018-04-14T07:42:55.109Z,49.00
2018-04-14T07:45:22.532Z,49.17
2018-04-14T07:47:49.960Z,48.97
2018-04-14T07:50:17.380Z,48.43
2018-04-14T07:52:44.839Z,48.30
2018-04-14T07:55:12.293Z,46.43
2018-04-14T07:57:39.741Z,47.00
2018-04-14T08:00:07.147Z,44.57
2018-04-14T08:02:34.763Z,45.20
2018-04-14T08:05:02.181Z,45.57
2018-04-14T08:07:29.605Z,44.00
2018-04-14T08:09:57.065Z,44.00
2018-04-14T08:12:24.476Z,43.37
2018-04-14T08:14:51.968Z,46.37
2018-04-14T08:17:19.423Z,44.60
2018-04-14T08:19:48.389Z,45.87
2018-04-14T08:22:16.174Z,44.30
2018-04-14T08:24:43.687Z,46.10
2018-04-14T08:27:11.072Z,43.23
2018-04-14T08:29:38.499Z,40.87
2018-04-14T08:32:05.905Z,47.93
2018-04-14T08:34:33.335Z,49.20
2018-04-14T08:37:00.745Z,48.20
2018-04-14T08:39:28.171Z,47.17
2018-04-14T08:41:55.610Z,48.83
2018-04-14T08:44:23.210Z,42.90
2018-04-14T08:46:51.651Z,50.17
2018-04-14T08:49:19.062Z,50.63
2018-04-14T08:51:46.477Z,49.07
2018-04-14T08:54:13.907Z,48.57
2018-04-14T08:56:41.357Z,51.13
2018-04-14T08:59:08.776Z,48.97
2018-04-14T09:01:36.200Z,45.70
2018-04-14T09:04:03.628Z,51.60
2018-04-14T09:06:31.965Z,50.67
2018-04-14T09:08:59.375Z,48.73
2018-04-14T09:11:27.441Z,52.47
2018-04-14T09:13:55.229Z,51.90
2018-04-14T09:16:22.657Z,48.50
2018-04-14T09:18:50.372Z,47.93
2018-04-14T09:21:17.931Z,50.43
2018-04-14T09:23:45.341Z,54.97
2018-04-14T09:26:12.819Z,47.63
2018-04-14T09:28:40.343Z,50.50
2018-04-14T09:31:07.760Z,52.10
2018-04-14T09:33:35.169Z,50.80
2018-04-14T09:36:04.003Z,52.00
2018-04-14T09:38:31.408Z,51.50
2018-04-14T09:40:58.827Z,47.90
2018-04-14T09:43:26.429Z,51.13
2018-04-14T09:45:53.974Z,55.27
2018-04-14T09:48:22.636Z,51.73
2018-04-14T09:50:50.060Z,49.60
2018-04-14T09:53:18.248Z,52.47
2018-04-14T09:55:45.689Z,51.73
2018-04-14T09:58:13.123Z,52.57
2018-04-14T10:00:46.326Z,55.93
2018-04-14T10:03:19.471Z,52.03
2018-04-14T10:05:47.596Z,54.37
2018-04-14T10:08:14.996Z,53.30
2018-04-14T10:10:42.452Z,53.07
2018-04-14T10:13:09.851Z,53.93
2018-04-14T10:15:37.288Z,56.43
2018-04-14T10:18:04.696Z,54.27
2018-04-14T10:20:32.104Z,51.80
2018-04-14T10:22:59.544Z,51.20
2018-04-14T10:25:26.992Z,50.97
2018-04-14T10:27:54.411Z,50.13
2018-04-14T10:30:21.856Z,48.90
2018-04-14T10:32:49.512Z,55.93
2018-04-14T10:35:16.940Z,54.30
2018-04-14T10:37:44.553Z,49.83
2018-04-14T10:40:11.912Z,51.87
2018-04-14T10:42:39.320Z,54.20
2018-04-14T10:45:06.754Z,51.70
2018-04-14T10:47:34.530Z,52.33
2018-04-14T10:50:01.967Z,53.17
2018-04-14T10:52:29.366Z,50.00
2018-04-14T10:54:56.811Z,53.63
2018-04-14T10:57:24.232Z,54.70
2018-04-14T10:59:51.655Z,53.20
2018-04-14T11:02:19.079Z,54.07
2018-04-14T11:04:46.504Z,55.47
2018-04-14T11:07:13.917Z,54.50
2018-04-14T11:09:41.345Z,55.60
2018-04-14T11:12:08.760Z,59.67
2018-04-14T11:14:36.176Z,52.43
2018-04-14T11:17:03.628Z,52.87
2018-04-14T11:19:31.042Z,52.10
2018-04-14T11:21:58.500Z,51.20
2018-04-14T11:24:25.922Z,53.67
2018-04-14T11:26:53.368Z,54.27
2018-04-14T11:29:20.791Z,55.57
2018-04-14T11:31:48.460Z,50.60
2018-04-14T11:34:15.868Z,46.67
2018-04-14T11:36:43.288Z,50.20
2018-04-14T11:39:10.703Z,52.73
2018-04-14T11:41:38.135Z,46.17
2018-04-14T11:44:05.549Z,53.43
2018-04-14T11:46:32.961Z,50.53
2018-04-14T11:49:00.392Z,52.67
2018-04-14T11:51:27.807Z,49.57
2018-04-14T11:53:55.224Z,49.63
2018-04-14T11:56:22.669Z,51.13
2018-04-14T11:58:50.077Z,49.80
2018-04-14T12:01:17.483Z,51.47
2018-04-14T12:03:45.013Z,47.37
2018-04-14T12:06:12.384Z,55.83
2018-04-14T12:08:39.800Z,49.20
2018-04-14T12:11:07.245Z,52.70
2018-04-14T12:13:34.660Z,47.60
2018-04-14T12:16:02.148Z,46.93
2018-04-14T12:18:29.576Z,50.97
2018-04-14T12:20:57.000Z,48.47
2018-04-14T12:23:24.463Z,46.43
2018-04-14T12:25:51.917Z,44.43
2018-04-14T12:28:19.732Z,45.33
2018-04-14T12:30:47.124Z,48.10
2018-04-14T12:33:14.544Z,48.20
2018-04-14T12:35:42.142Z,47.50
2018-04-14T12:38:09.636Z,50.87
2018-04-14T12:40:37.085Z,47.27
2018-04-14T12:43:04.537Z,50.20
2018-04-14T12:45:32.699Z,49.97
2018-04-14T12:48:00.138Z,48.20
2018-04-14T12:50:27.552Z,50.37
2018-04-14T12:52:54.976Z,47.70
2018-04-14T12:55:22.391Z,46.33
2018-04-14T12:57:51.457Z,47.77
2018-04-14T13:00:18.873Z,48.87
2018-04-14T13:02:46.275Z,45.30
2018-04-14T13:05:14.502Z,49.90
2018-04-14T13:07:41.936Z,48.73
2018-04-14T13:10:09.361Z,45.93
2018-04-14T13:12:36.805Z,44.47
2018-04-14T13:15:04.216Z,52.83
2018-04-14T13:17:31.946Z,45.20
2018-04-14T13:19:59.353Z,44.17
2018-04-14T13:22:26.821Z,45.93
2018-04-14T13:24:54.399Z,46.40
2018-04-14T13:27:21.799Z,47.33
2018-04-14T13:29:49.215Z,48.70
2018-04-14T13:32:16.908Z,48.37
2018-04-14T13:34:44.335Z,47.47
2018-04-14T13:37:11.745Z,45.33
2018-04-14T13:39:39.240Z,51.13
2018-04-14T13:42:06.655Z,50.77
2018-04-14T13:44:34.071Z,53.60
2018-04-14T13:47:01.491Z,45.23
2018-04-14T13:49:28.928Z,44.47
2018-04-14T13:51:56.402Z,47.50
2018-04-14T13:54:23.799Z,46.07
2018-04-14T13:56:51.212Z,49.73
2018-04-14T13:59:18.628Z,49.40
2018-04-14T14:01:46.195Z,45.97
2018-04-14T14:04:13.632Z,49.37
2018-04-14T14:06:41.124Z,44.00
2018-04-14T14:09:08.530Z,45.90
2018-04-14T14:11:35.948Z,44.97
2018-04-14T14:14:03.405Z,44.80
2018-04-14T14:16:30.823Z,44.77
2018-04-14T14:18:58.400Z,50.63
2018-04-14T14:21:25.907Z,47.70
2018-04-14T14:23:53.367Z,47.33
2018-04-14T14:26:20.763Z,44.67
2018-04-14T14:28:48.244Z,50.03
2018-04-14T14:31:15.727Z,46.80
2018-04-14T14:33:43.163Z,54.03
2018-04-14T14:36:10.596Z,48.20
2018-04-14T14:38:38.047Z,53.90
2018-04-14T14:41:05.544Z,50.27
2018-04-14T14:43:32.962Z,49.93
2018-04-14T14:46:00.381Z,53.47
2018-04-14T14:48:27.861Z,47.73
2018-04-14T14:50:55.423Z,48.53
2018-04-14T14:53:22.835Z,44.33
2018-04-14T14:55:50.245Z,48.03
2018-04-14T14:58:17.692Z,51.27
2018-04-14T15:00:45.105Z,48.00
2018-04-14T15:03:12.557Z,51.60
2018-04-14T15:05:39.975Z,49.73
2018-04-14T15:08:07.392Z,50.07
2018-04-14T15:10:34.830Z,49.00
2018-04-14T15:13:02.285Z,49.87
2018-04-14T15:15:29.791Z,46.97
2018-04-14T15:17:57.232Z,49.33
2018-04-14T15:20:24.641Z,49.00
2018-04-14T15:22:52.074Z,53.63
2018-04-14T15:25:19.514Z,55.43
2018-04-14T15:27:46.929Z,47.73
2018-04-14T15:30:14.349Z,53.27
2018-04-14T15:32:41.772Z,51.77
2018-04-14T15:35:09.184Z,53.30
2018-04-14T15:37:36.612Z,55.23
2018-04-14T15:40:04.016Z,53.97
2018-04-14T15:42:31.460Z,54.50
2018-04-14T15:44:58.877Z,52.90
2018-04-14T15:47:26.288Z,54.03
2018-04-14T15:49:53.710Z,55.13
2018-04-14T15:52:21.116Z,54.30
2018-04-14T15:54:48.560Z,55.27
2018-04-14T15:57:15.963Z,54.47
2018-04-14T15:59:43.533Z,50.23
2018-04-14T16:02:10.943Z,51.60
2018-04-14T16:04:38.422Z,50.00
2018-04-14T16:07:05.798Z,54.77
2018-04-14T16:09:33.208Z,55.97
2018-04-14T16:12:00.639Z,54.67
2018-04-14T16:14:28.049Z,55.03
2018-04-14T16:16:55.461Z,57.10
2018-04-14T16:19:22.903Z,57.13
2018-04-14T16:21:50.355Z,53.57
2018-04-14T16:24:17.782Z,53.03
2018-04-14T16:26:45.224Z,57.67
2018-04-14T16:29:12.652Z,57.43
2018-04-14T16:31:40.073Z,55.97
2018-04-14T16:34:07.500Z,56.13
2018-04-14T16:36:34.956Z,55.30
2018-04-14T16:39:02.376Z,56.00
2018-04-14T16:41:29.784Z,51.83
2018-04-14T16:43:57.198Z,53.00
2018-04-14T16:46:24.614Z,55.53
2018-04-14T16:48:52.085Z,56.13
2018-04-14T16:51:19.468Z,55.93
2018-04-14T16:53:46.887Z,57.43
2018-04-14T16:56:14.603Z,57.17
2018-04-14T16:58:42.009Z,52.37
2018-04-14T17:01:09.465Z,55.77
2018-04-14T17:03:36.848Z,52.63
2018-04-14T17:06:04.257Z,53.70
2018-04-14T17:08:31.684Z,52.43
2018-04-14T17:10:59.118Z,54.60
2018-04-14T17:13:26.551Z,52.37
2018-04-14T17:15:54.044Z,54.97
2018-04-14T17:18:21.512Z,51.83
2018-04-14T17:20:48.927Z,51.90
2018-04-14T17:23:16.420Z,51.07
2018-04-14T17:25:43.828Z,54.43
2018-04-14T17:28:11.275Z,47.67
2018-04-14T17:30:38.685Z,51.17
2018-04-14T17:33:06.095Z,51.83
2018-04-14T17:35:33.624Z,45.47
2018-04-14T17:38:01.046Z,47.83
2018-04-14T17:40:28.453Z,51.47
2018-04-14T17:42:55.985Z,50.03
2018-04-14T17:45:23.392Z,47.53
2018-04-14T17:47:50.824Z,42.87
2018-04-14T17:50:18.300Z,45.43
2018-04-14T17:52:45.742Z,46.93
2018-04-14T17:55:13.169Z,48.37
2018-04-14T17:57:40.583Z,46.63
2018-04-14T18:00:08.016Z,48.07
2018-04-14T18:02:35.491Z,51.87
2018-04-14T18:05:02.891Z,46.20
2018-04-14T18:07:30.313Z,49.17
2018-04-14T18:09:57.734Z,51.00
2018-04-14T18:12:25.135Z,44.63
2018-04-14T18:14:52.564Z,48.83
2018-04-14T18:17:20.007Z,48.30
2018-04-14T18:19:47.428Z,50.13
2018-04-14T18:22:14.856Z,49.33
2018-04-14T18:24:42.272Z,45.40
2018-04-14T18:27:09.696Z,49.77
2018-04-14T18:29:37.104Z,46.13
2018-04-14T18:32:04.552Z,44.40
2018-04-14T18:34:32.007Z,43.87
2018-04-14T18:36:59.432Z,53.07
2018-04-14T18:39:26.891Z,47.97
2018-04-14T18:41:54.308Z,51.93
2018-04-14T18:44:21.727Z,48.83
2018-04-14T18:46:49.156Z,46.23
2018-04-14T18:49:16.572Z,43.13
2018-04-14T18:51:43.996Z,43.50
2018-04-14T18:54:11.452Z,47.77
2018-04-14T18:56:39.154Z,44.10
2018-04-14T18:59:06.572Z,41.87
2018-04-14T19:01:33.984Z,40.13
2018-04-14T19:04:01.441Z,43.40
2018-04-14T19:06:28.858Z,41.50
2018-04-14T19:08:56.335Z,49.17
2018-04-14T19:11:23.772Z,47.00
2018-04-14T19:13:51.186Z,41.70
2018-04-14T19:16:18.600Z,41.10
2018-04-14T19:18:46.032Z,44.17
2018-04-14T19:21:13.539Z,41.67
2018-04-14T19:23:40.947Z,41.13
2018-04-14T19:26:08.381Z,41.17
2018-04-14T19:28:35.812Z,43.80
2018-04-14T19:31:03.226Z,43.50
2018-04-14T19:33:30.676Z,38.10
2018-04-14T19:35:58.135Z,40.23
2018-04-14T19:38:25.664Z,51.27
2018-04-14T19:40:53.380Z,43.97
2018-04-14T19:43:20.835Z,49.57
2018-04-14T19:45:48.224Z,53.33
2018-04-14T19:48:15.648Z,46.33
2018-04-14T19:50:43.372Z,47.37
2018-04-14T19:53:10.788Z,47.83
2018-04-14T19:55:38.203Z,51.80
2018-04-14T19:58:05.638Z,52.87
2018-04-14T20:00:33.052Z,50.93
2018-04-14T20:03:00.476Z,47.70
2018-04-14T20:05:27.920Z,46.80
2018-04-14T20:07:55.444Z,53.20
2018-04-14T20:10:22.900Z,53.13
2018-04-14T20:12:50.315Z,53.93
2018-04-14T20:15:17.761Z,54.50
2018-04-14T20:17:45.181Z,53.60
2018-04-14T20:20:13.286Z,54.37
2018-04-14T20:22:41.011Z,52.17
2018-04-14T20:25:08.482Z,55.87
2018-04-14T20:27:35.948Z,53.80
2018-04-14T20:30:03.567Z,49.23
2018-04-14T20:32:30.985Z,53.97
2018-04-14T20:34:58.445Z,56.90
2018-04-14T20:37:26.243Z,53.23
2018-04-14T20:39:53.668Z,52.47
2018-04-14T20:42:21.096Z,61.37
2018-04-14T20:44:48.533Z,62.43
2018-04-14T20:47:15.944Z,55.73
2018-04-14T20:49:43.487Z,63.60
2018-04-14T20:52:10.913Z,59.77
2018-04-14T20:54:38.361Z,61.70
2018-04-14T20:57:05.810Z,67.33
2018-04-14T20:59:33.229Z,60.43
2018-04-14T21:02:00.658Z,61.73
2018-04-14T21:04:28.090Z,58.67
2018-04-14T21:06:55.526Z,61.50
2018-04-14T21:09:22.940Z,63.43
2018-04-14T21:11:50.368Z,66.03
2018-04-14T21:14:17.792Z,62.70
2018-04-14T21:16:45.211Z,63.27
2018-04-14T21:19:12.632Z,64.33
2018-04-14T21:21:40.056Z,64.60
2018-04-14T21:24:07.465Z,60.33
2018-04-14T21:26:34.877Z,59.90
2018-04-14T21:29:02.301Z,63.37
2018-04-14T21:31:29.716Z,65.30
2018-04-14T21:33:57.145Z,65.70
2018-04-14T21:36:24.556Z,60.53
2018-04-14T21:38:51.980Z,62.63
2018-04-14T21:41:19.392Z,66.13
2018-04-14T21:43:46.852Z,65.97
2018-04-14T21:46:14.272Z,62.33
2018-04-14T21:48:41.719Z,62.67
2018-04-14T21:51:09.140Z,63.17
2018-04-14T21:53:37.464Z,64.83
2018-04-14T21:56:05.334Z,65.07
2018-04-14T21:58:32.740Z,64.30
2018-04-14T22:01:00.164Z,61.47
2018-04-14T22:03:27.604Z,62.30
2018-04-14T22:05:55.179Z,57.90
2018-04-14T22:08:22.589Z,64.70
2018-04-14T22:10:50.013Z,63.17
2018-04-14T22:13:17.453Z,68.17
2018-04-14T22:15:44.868Z,64.63
2018-04-14T22:18:12.302Z,64.53
2018-04-14T22:20:39.723Z,64.10
2018-04-14T22:23:07.123Z,63.20
2018-04-14T22:25:34.577Z,67.90
2018-04-14T22:28:01.993Z,60.93
2018-04-14T22:30:29.412Z,55.73
2018-04-14T22:32:56.844Z,55.47
2018-04-14T22:35:24.256Z,52.20
2018-04-14T22:37:51.697Z,52.93
2018-04-14T22:40:19.108Z,51.47
2018-04-14T22:42:46.742Z,52.07
2018-04-14T22:45:14.148Z,59.50
2018-04-14T22:47:41.576Z,60.97
2018-04-14T22:50:09.013Z,70.13
2018-04-14T22:52:36.432Z,61.87
2018-04-14T22:55:03.865Z,64.43
2018-04-14T22:57:31.279Z,62.27
2018-04-14T22:59:58.701Z,58.03
2018-04-14T23:02:26.283Z,56.23
2018-04-14T23:04:53.690Z,58.13
2018-04-14T23:07:21.118Z,66.23
2018-04-14T23:09:48.554Z,66.67
2018-04-14T23:12:15.978Z,62.73
2018-04-14T23:14:43.402Z,64.27
2018-04-14T23:17:10.850Z,62.90
2018-04-14T23:19:38.266Z,58.00
2018-04-14T23:22:06.591Z,63.50
2018-04-14T23:24:34.045Z,62.67
2018-04-14T23:27:01.470Z,66.33
2018-04-14T23:29:28.900Z,58.00
2018-04-14T23:31:56.332Z,61.83
2018-04-14T23:34:23.913Z,57.60
2018-04-14T23:36:51.471Z,54.37
2018-04-14T23:39:18.888Z,45.30
2018-04-14T23:41:46.312Z,49.67
2018-04-14T23:44:13.732Z,57.70
2018-04-14T23:46:41.159Z,48.17
2018-04-14T23:49:08.588Z,54.13
2018-04-14T23:51:35.999Z,66.33
2018-04-14T23:54:03.443Z,57.97
2018-04-14T23:56:30.859Z,59.73
2018-04-14T23:58:58.396Z,57.07
